createdAt,value
2019-05-22T00:02:19.383Z,68.15
2019-05-22T00:04:53.486Z,60.58
2019-05-22T00:07:23.492Z,64.95
2019-05-22T00:09:55.002Z,59.33
2019-05-22T00:12:25.725Z,63.03
2019-05-22T00:14:56.444Z,59.67
2019-05-22T00:17:30.573Z,65.47
2019-05-22T00:20:01.668Z,65.37
2019-05-22T00:22:33.579Z,65.72
2019-05-22T00:25:05.198Z,64.75
2019-05-22T00:27:35.171Z,73.72
2019-05-22T00:30:08.955Z,75.80
2019-05-22T00:32:39.631Z,78.95
2019-05-22T00:35:09.979Z,79.20
2019-05-22T00:37:40.476Z,75.15
2019-05-22T00:40:12.132Z,80.50
2019-05-22T00:42:43.196Z,77.15
2019-05-22T00:45:14.673Z,72.10
2019-05-22T00:47:44.475Z,75.00
2019-05-22T00:50:16.377Z,71.25
2019-05-22T00:52:50.589Z,80.03
2019-05-22T00:55:26.414Z,76.05
2019-05-22T00:58:07.033Z,79.87
2019-05-22T01:00:39.853Z,78.17
2019-05-22T01:03:11.340Z,72.65
2019-05-22T01:05:42.703Z,72.53
2019-05-22T01:08:14.435Z,62.10
2019-05-22T01:10:45.951Z,63.58
2019-05-22T01:13:15.943Z,51.85
2019-05-22T01:15:46.901Z,51.00
2019-05-22T01:18:16.692Z,58.58
2019-05-22T01:20:48.911Z,52.33
2019-05-22T01:23:20.406Z,72.42
2019-05-22T01:25:52.071Z,58.60
2019-05-22T01:28:21.953Z,60.12
2019-05-22T01:30:56.388Z,60.12
2019-05-22T01:33:27.821Z,78.37
2019-05-22T01:36:02.135Z,71.30
2019-05-22T01:38:33.666Z,65.00
2019-05-22T01:41:10.988Z,66.90
2019-05-22T01:43:42.189Z,50.73
2019-05-22T01:46:12.618Z,51.30
2019-05-22T01:48:42.432Z,64.55
2019-05-22T01:51:13.868Z,62.58
2019-05-22T01:53:43.824Z,71.13
2019-05-22T01:56:15.414Z,67.80
2019-05-22T01:58:45.414Z,75.08
2019-05-22T02:01:23.883Z,53.60
2019-05-22T02:03:55.270Z,38.78
2019-05-22T02:06:26.778Z,42.00
2019-05-22T02:09:17.472Z,62.00
2019-05-22T02:11:49.118Z,70.70
2019-05-22T02:14:20.066Z,57.30
2019-05-22T02:16:56.918Z,61.37
2019-05-22T02:19:22.654Z,61.43
2019-05-22T02:21:54.202Z,67.50
2019-05-22T02:24:23.997Z,62.37
2019-05-22T02:26:54.902Z,58.45
2019-05-22T02:29:26.362Z,55.92
2019-05-22T02:31:57.875Z,61.45
2019-05-22T02:34:28.305Z,64.53
2019-05-22T02:36:59.278Z,65.50
2019-05-22T02:39:30.684Z,58.92
2019-05-22T02:42:06.685Z,74.15
2019-05-22T02:44:37.258Z,64.80
2019-05-22T02:47:18.727Z,66.45
2019-05-22T02:49:40.209Z,61.53
2019-05-22T02:52:10.314Z,60.08
2019-05-22T02:54:40.273Z,56.92
2019-05-22T02:57:11.977Z,60.63
2019-05-22T02:59:42.547Z,59.88
2019-05-22T03:02:14.191Z,59.98
2019-05-22T03:05:07.314Z,55.75
2019-05-22T03:07:38.063Z,67.82
2019-05-22T03:10:10.006Z,71.42
2019-05-22T03:12:41.566Z,75.42
2019-05-22T03:15:13.036Z,73.87
2019-05-22T03:17:43.653Z,71.60
2019-05-22T03:20:16.642Z,77.92
2019-05-22T03:23:09.860Z,81.97
2019-05-22T03:25:40.244Z,67.40
2019-05-22T03:28:11.132Z,60.05
2019-05-22T03:30:42.655Z,56.77
2019-05-22T03:33:13.543Z,70.30
2019-05-22T03:35:50.998Z,68.47
2019-05-22T03:38:21.456Z,67.70
2019-05-22T03:40:53.042Z,70.22
2019-05-22T03:43:25.138Z,69.70
2019-05-22T03:45:56.416Z,66.22
2019-05-22T03:48:28.552Z,69.00
2019-05-22T03:51:12.541Z,70.55
2019-05-22T03:53:43.897Z,71.35
2019-05-22T03:56:15.777Z,79.05
2019-05-22T03:58:46.984Z,53.28
2019-05-22T04:01:17.705Z,75.72
2019-05-22T04:03:48.444Z,70.67
2019-05-22T04:06:19.832Z,72.20
2019-05-22T04:08:51.701Z,82.02
2019-05-22T04:11:22.924Z,78.65
2019-05-22T04:13:53.183Z,66.60
2019-05-22T04:16:24.593Z,66.10
2019-05-22T04:18:55.870Z,74.62
2019-05-22T04:21:25.648Z,66.12
2019-05-22T04:23:55.546Z,61.68
2019-05-22T04:26:26.645Z,70.03
2019-05-22T04:28:57.868Z,69.17
2019-05-22T04:31:49.668Z,70.50
2019-05-22T04:34:20.916Z,75.07
2019-05-22T04:36:50.898Z,71.02
2019-05-22T04:39:24.333Z,75.57
2019-05-22T04:41:55.445Z,63.25
2019-05-22T04:44:26.591Z,65.78
2019-05-22T04:46:56.470Z,60.63
2019-05-22T04:49:26.461Z,66.65
2019-05-22T04:51:56.461Z,73.47
2019-05-22T04:54:26.190Z,66.35
2019-05-22T04:56:56.033Z,68.87
2019-05-22T04:59:25.831Z,68.50
2019-05-22T05:01:56.174Z,68.67
2019-05-22T05:04:25.881Z,62.00
2019-05-22T05:06:55.728Z,60.10
2019-05-22T05:09:25.956Z,59.05
2019-05-22T05:11:55.901Z,61.75
2019-05-22T05:14:26.398Z,55.78
2019-05-22T05:16:56.575Z,60.67
2019-05-22T05:19:27.244Z,55.70
2019-05-22T05:21:57.066Z,55.58
2019-05-22T05:24:27.562Z,61.98
2019-05-22T05:26:59.612Z,62.17
2019-05-22T05:29:29.684Z,58.02
2019-05-22T05:31:59.919Z,70.28
2019-05-22T05:34:39.616Z,62.88
2019-05-22T05:37:10.138Z,63.28
2019-05-22T05:39:44.051Z,62.13
2019-05-22T05:42:13.824Z,69.87
2019-05-22T05:44:43.634Z,67.17
2019-05-22T05:47:13.460Z,80.15
2019-05-22T05:49:43.386Z,68.75
2019-05-22T05:52:13.407Z,64.58
2019-05-22T05:54:43.743Z,67.97
2019-05-22T05:57:36.731Z,69.70
2019-05-22T06:00:09.612Z,71.28
2019-05-22T06:02:53.997Z,72.72
2019-05-22T06:05:11.009Z,74.07
2019-05-22T06:07:41.194Z,71.62
2019-05-22T06:10:27.782Z,69.50
2019-05-22T06:12:57.679Z,66.00
2019-05-22T06:15:46.419Z,66.57
2019-05-22T06:18:29.213Z,69.53
2019-05-22T06:21:03.782Z,63.80
2019-05-22T06:23:35.748Z,66.25
2019-05-22T06:26:07.197Z,63.08
2019-05-22T06:28:38.173Z,71.00
2019-05-22T06:31:11.516Z,55.15
2019-05-22T06:33:41.318Z,59.03
2019-05-22T06:36:13.872Z,58.30
2019-05-22T06:38:48.623Z,52.85
2019-05-22T06:41:20.303Z,56.90
2019-05-22T06:44:22.714Z,50.40
2019-05-22T06:46:53.558Z,41.80
2019-05-22T06:49:35.584Z,46.92
2019-05-22T06:52:08.362Z,49.35
2019-05-22T06:54:38.945Z,44.77
2019-05-22T06:57:11.142Z,44.77
2019-05-22T06:59:41.076Z,41.65
2019-05-22T07:02:13.253Z,43.38
2019-05-22T07:07:12.770Z,44.13
2019-05-22T07:09:44.622Z,42.25
2019-05-22T07:12:15.685Z,42.58
2019-05-22T07:14:51.574Z,40.12
2019-05-22T07:17:23.640Z,38.60
2019-05-22T07:19:53.835Z,40.30
2019-05-22T07:22:24.194Z,42.53
2019-05-22T07:24:54.022Z,42.73
2019-05-22T07:27:26.417Z,42.62
2019-05-22T07:32:30.529Z,44.08
2019-05-22T07:34:58.063Z,39.83
2019-05-22T07:37:28.011Z,45.80
2019-05-22T07:39:57.991Z,43.17
2019-05-22T07:42:27.904Z,43.48
2019-05-22T07:44:57.656Z,41.18
2019-05-22T07:47:27.391Z,42.08
2019-05-22T07:49:57.281Z,41.05
2019-05-22T07:52:27.461Z,35.10
2019-05-22T07:54:57.557Z,40.10
2019-05-22T07:57:27.360Z,40.85
2019-05-22T07:59:57.163Z,41.30
2019-05-22T08:02:27.701Z,36.93
2019-05-22T08:04:57.983Z,33.95
2019-05-22T08:07:28.388Z,41.65
2019-05-22T08:09:58.207Z,34.83
2019-05-22T08:12:29.003Z,35.00
2019-05-22T08:14:59.101Z,32.67
2019-05-22T08:17:29.050Z,32.38
2019-05-22T08:19:58.779Z,33.33
2019-05-22T08:22:29.468Z,35.75
2019-05-22T08:24:59.303Z,33.05
2019-05-22T08:27:29.258Z,32.25
2019-05-22T08:29:59.571Z,32.93
2019-05-22T08:32:29.436Z,30.65
2019-05-22T08:34:59.900Z,29.80
2019-05-22T08:37:30.171Z,34.00
2019-05-22T08:40:00.105Z,37.88
2019-05-22T08:42:34.818Z,30.92
2019-05-22T08:45:02.541Z,30.32
2019-05-22T08:47:32.530Z,25.35
2019-05-22T08:50:02.414Z,28.80
2019-05-22T08:52:32.314Z,26.93
2019-05-22T08:55:02.649Z,25.80
2019-05-22T08:57:33.839Z,28.77
2019-05-22T09:00:06.955Z,25.10
2019-05-22T09:02:36.811Z,15.75
2019-05-22T09:05:08.120Z,11.38
2019-05-22T09:07:39.239Z,7.95
2019-05-22T09:10:09.495Z,12.40
2019-05-22T09:12:39.367Z,13.05
2019-05-22T09:15:09.189Z,7.78
2019-05-22T09:17:40.046Z,11.55
2019-05-22T09:20:11.130Z,10.93
2019-05-22T09:22:41.680Z,8.85
2019-05-22T09:25:13.667Z,15.05
2019-05-22T09:27:44.300Z,10.53
2019-05-22T09:30:14.513Z,10.98
2019-05-22T09:32:47.434Z,13.68
2019-05-22T09:35:15.720Z,9.00
2019-05-22T09:37:45.462Z,10.68
2019-05-22T09:40:15.293Z,10.82
2019-05-22T09:42:45.500Z,12.23
2019-05-22T09:45:16.690Z,13.83
2019-05-22T09:47:46.821Z,11.88
2019-05-22T09:50:17.577Z,11.40
2019-05-22T09:52:57.139Z,15.63
2019-05-22T09:55:19.434Z,12.05
2019-05-22T09:57:49.453Z,11.55
2019-05-22T10:00:20.909Z,13.30
2019-05-22T10:02:50.951Z,12.00
2019-05-22T10:05:21.073Z,17.25
2019-05-22T10:08:00.482Z,12.15
2019-05-22T10:10:22.752Z,13.60
2019-05-22T10:12:53.145Z,15.45
2019-05-22T10:15:23.590Z,10.90
2019-05-22T10:17:53.447Z,10.08
2019-05-22T10:20:24.141Z,12.30
2019-05-22T10:22:54.011Z,12.50
2019-05-22T10:25:23.888Z,13.98
2019-05-22T10:27:53.871Z,14.93
2019-05-22T10:30:24.778Z,9.40
2019-05-22T10:32:54.723Z,11.08
2019-05-22T10:35:25.615Z,10.18
2019-05-22T10:37:55.826Z,11.95
2019-05-22T10:40:26.043Z,12.93
2019-05-22T10:42:56.533Z,10.03
2019-05-22T10:45:27.748Z,16.75
2019-05-22T10:47:57.555Z,12.73
2019-05-22T10:50:27.475Z,11.55
2019-05-22T10:52:57.646Z,16.62
2019-05-22T10:55:28.343Z,11.68
2019-05-22T10:57:58.292Z,16.15
2019-05-22T11:00:29.135Z,15.58
2019-05-22T11:02:58.854Z,12.07
2019-05-22T11:05:29.359Z,11.88
2019-05-22T11:07:59.968Z,11.85
2019-05-22T11:10:29.777Z,13.78
2019-05-22T11:12:59.790Z,10.43
2019-05-22T11:15:29.795Z,12.53
2019-05-22T11:17:59.653Z,11.40
2019-05-22T11:20:30.781Z,17.27
2019-05-22T11:23:01.036Z,12.23
2019-05-22T11:25:31.518Z,11.28
2019-05-22T11:28:01.514Z,10.43
2019-05-22T11:30:31.520Z,10.30
2019-05-22T11:33:01.681Z,12.55
2019-05-22T11:35:32.141Z,12.50
2019-05-22T11:38:02.255Z,13.43
2019-05-22T11:40:33.216Z,13.00
2019-05-22T11:43:03.045Z,14.87
2019-05-22T11:45:32.862Z,14.18
2019-05-22T11:48:02.926Z,14.43
2019-05-22T11:50:33.517Z,11.85
2019-05-22T11:53:03.612Z,12.75
2019-05-22T11:55:44.912Z,15.20
2019-05-22T11:58:06.926Z,15.23
2019-05-22T12:00:36.851Z,13.50
2019-05-22T12:03:07.449Z,15.08
2019-05-22T12:05:37.461Z,17.95
2019-05-22T12:08:08.311Z,20.82
2019-05-22T12:10:38.565Z,17.20
2019-05-22T12:13:09.203Z,14.85
2019-05-22T12:15:40.527Z,13.38
2019-05-22T12:18:10.761Z,15.27
2019-05-22T12:20:40.887Z,15.65
2019-05-22T12:23:10.795Z,16.25
2019-05-22T12:25:41.319Z,13.70
2019-05-22T12:28:11.226Z,13.80
2019-05-22T12:30:41.616Z,17.42
2019-05-22T12:33:13.940Z,18.20
2019-05-22T12:35:44.056Z,15.80
2019-05-22T12:38:14.969Z,18.90
2019-05-22T12:40:46.557Z,12.25
2019-05-22T12:43:18.131Z,15.70
2019-05-22T12:45:49.093Z,20.20
2019-05-22T12:48:19.314Z,18.37
2019-05-22T12:50:49.461Z,16.65
2019-05-22T12:53:19.975Z,14.65
2019-05-22T12:55:49.683Z,16.07
2019-05-22T12:58:20.356Z,17.15
2019-05-22T13:00:50.757Z,11.45
2019-05-22T13:03:20.919Z,15.03
2019-05-22T13:05:51.869Z,14.38
2019-05-22T13:08:21.736Z,18.10
2019-05-22T13:10:52.448Z,11.28
2019-05-22T13:13:22.777Z,17.82
2019-05-22T13:15:54.251Z,15.13
2019-05-22T13:18:24.305Z,15.08
2019-05-22T13:20:54.212Z,16.23
2019-05-22T13:23:24.860Z,16.85
2019-05-22T13:25:55.136Z,19.52
2019-05-22T13:28:25.586Z,12.88
2019-05-22T13:30:55.474Z,15.98
2019-05-22T13:33:26.912Z,15.32
2019-05-22T13:35:56.745Z,15.83
2019-05-22T13:38:27.797Z,18.82
2019-05-22T13:40:57.650Z,18.67
2019-05-22T13:43:28.758Z,14.07
2019-05-22T13:45:58.555Z,14.95
2019-05-22T13:48:28.865Z,12.45
2019-05-22T13:50:59.278Z,16.62
2019-05-22T13:53:29.929Z,17.25
2019-05-22T13:55:59.945Z,16.87
2019-05-22T13:58:30.119Z,12.68
2019-05-22T14:00:59.933Z,14.07
2019-05-22T14:03:30.124Z,14.30
2019-05-22T14:06:01.484Z,15.30
2019-05-22T14:08:31.325Z,16.35
2019-05-22T14:11:01.561Z,17.17
2019-05-22T14:13:32.048Z,12.20
2019-05-22T14:16:01.796Z,14.98
2019-05-22T14:18:31.719Z,13.55
2019-05-22T14:21:01.470Z,17.55
2019-05-22T14:23:31.445Z,17.48
2019-05-22T14:26:01.262Z,25.35
2019-05-22T14:28:31.416Z,12.13
2019-05-22T14:31:01.478Z,12.45
2019-05-22T14:33:31.740Z,14.35
2019-05-22T14:36:02.300Z,13.22
2019-05-22T14:38:32.473Z,15.40
2019-05-22T14:41:02.744Z,16.00
2019-05-22T14:43:32.616Z,11.20
2019-05-22T14:46:02.971Z,14.05
2019-05-22T14:48:33.754Z,15.60
2019-05-22T14:51:03.651Z,13.22
2019-05-22T14:53:33.593Z,11.00
2019-05-22T14:56:03.769Z,10.85
2019-05-22T14:58:34.025Z,13.70
2019-05-22T15:01:04.329Z,12.75
2019-05-22T15:03:35.675Z,12.00
2019-05-22T15:06:05.537Z,13.78
2019-05-22T15:08:35.494Z,13.88
2019-05-22T15:11:05.641Z,15.90
2019-05-22T15:13:35.552Z,13.70
2019-05-22T15:16:05.334Z,13.18
2019-05-22T15:18:35.090Z,12.55
2019-05-22T15:21:06.509Z,11.33
2019-05-22T15:23:37.472Z,11.37
2019-05-22T15:26:07.150Z,12.05
2019-05-22T15:28:36.978Z,13.60
2019-05-22T15:31:06.821Z,18.60
2019-05-22T15:33:37.018Z,16.07
2019-05-22T15:36:08.273Z,13.28
2019-05-22T15:38:41.108Z,16.05
2019-05-22T15:41:11.645Z,10.00
2019-05-22T15:43:41.656Z,12.13
2019-05-22T15:46:11.849Z,13.03
2019-05-22T15:48:41.734Z,19.25
2019-05-22T15:51:11.461Z,15.85
2019-05-22T15:53:41.670Z,12.68
2019-05-22T15:56:11.524Z,12.75
2019-05-22T15:58:43.902Z,21.82
2019-05-22T16:03:45.570Z,14.28
2019-05-22T16:06:16.064Z,17.30
2019-05-22T16:08:46.577Z,15.95
2019-05-22T16:11:17.023Z,14.75
2019-05-22T16:13:46.826Z,13.70
2019-05-22T16:16:16.817Z,17.20
2019-05-22T16:18:47.750Z,13.45
2019-05-22T16:21:18.030Z,18.17
2019-05-22T16:23:48.340Z,15.85
2019-05-22T16:26:18.460Z,17.67
2019-05-22T16:28:48.782Z,13.90
2019-05-22T16:31:19.524Z,14.35
2019-05-22T16:33:49.302Z,17.92
2019-05-22T16:36:20.115Z,25.52
2019-05-22T16:38:49.857Z,16.35
2019-05-22T16:41:19.792Z,14.35
2019-05-22T16:43:50.557Z,13.72
2019-05-22T16:46:22.493Z,16.12
2019-05-22T16:48:52.640Z,15.65
2019-05-22T16:51:22.520Z,16.23
2019-05-22T16:53:54.027Z,16.35
2019-05-22T16:56:23.844Z,19.05
2019-05-22T16:58:53.854Z,15.15
2019-05-22T17:01:25.356Z,15.50
2019-05-22T17:03:56.681Z,15.83
2019-05-22T17:06:26.707Z,14.35
2019-05-22T17:08:58.088Z,16.60
2019-05-22T17:11:28.645Z,21.27
2019-05-22T17:14:01.655Z,15.78
2019-05-22T17:16:33.316Z,15.55
2019-05-22T17:19:03.498Z,15.30
2019-05-22T17:21:34.409Z,14.50
2019-05-22T17:24:04.809Z,24.67
2019-05-22T17:26:35.261Z,18.52
2019-05-22T17:29:05.162Z,18.40
2019-05-22T17:31:35.251Z,15.60
2019-05-22T17:34:07.254Z,22.35
2019-05-22T17:36:37.367Z,20.48
2019-05-22T17:39:09.784Z,34.53
2019-05-22T17:41:41.505Z,20.97
2019-05-22T17:44:12.257Z,15.78
2019-05-22T17:46:42.403Z,20.15
2019-05-22T17:49:12.394Z,16.20
2019-05-22T17:51:42.569Z,14.98
2019-05-22T17:54:13.574Z,21.80
2019-05-22T17:56:44.275Z,16.25
2019-05-22T17:59:14.068Z,16.25
2019-05-22T18:01:44.311Z,16.02
2019-05-22T18:04:14.236Z,16.00
2019-05-22T18:06:44.040Z,16.77
2019-05-22T18:09:14.141Z,19.92
2019-05-22T18:11:44.052Z,15.48
2019-05-22T18:14:13.794Z,14.60
2019-05-22T18:16:43.537Z,16.02
2019-05-22T18:19:13.889Z,12.33
2019-05-22T18:21:43.797Z,12.98
2019-05-22T18:24:13.554Z,15.65
2019-05-22T18:26:43.575Z,10.30
2019-05-22T18:29:13.764Z,10.43
2019-05-22T18:31:43.738Z,11.22
2019-05-22T18:34:13.603Z,15.03
2019-05-22T18:36:43.537Z,13.43
2019-05-22T18:39:15.561Z,16.30
2019-05-22T18:41:45.384Z,12.25
2019-05-22T18:44:15.207Z,14.43
2019-05-22T18:46:45.041Z,15.80
2019-05-22T18:49:14.846Z,16.30
2019-05-22T18:51:45.128Z,9.48
2019-05-22T18:54:14.885Z,13.80
2019-05-22T18:56:44.957Z,14.75
2019-05-22T18:59:14.911Z,14.05
2019-05-22T19:01:45.104Z,13.80
2019-05-22T19:04:15.495Z,12.35
2019-05-22T19:06:45.942Z,16.62
2019-05-22T19:09:16.023Z,29.57
2019-05-22T19:11:46.102Z,13.68
2019-05-22T19:14:16.378Z,11.97
2019-05-22T19:16:46.251Z,12.82
2019-05-22T19:19:16.012Z,10.82
2019-05-22T19:21:45.694Z,10.13
2019-05-22T19:24:15.564Z,11.55
2019-05-22T19:26:45.706Z,13.95
2019-05-22T19:29:15.831Z,11.22
2019-05-22T19:31:46.153Z,14.35
2019-05-22T19:34:16.822Z,10.75
2019-05-22T19:36:47.015Z,7.78
2019-05-22T19:39:17.403Z,9.30
2019-05-22T19:42:01.323Z,8.30
2019-05-22T19:44:19.343Z,14.55
2019-05-22T19:46:49.887Z,12.93
2019-05-22T19:49:20.784Z,13.20
2019-05-22T19:51:50.797Z,13.70
2019-05-22T19:54:20.633Z,15.40
2019-05-22T19:56:50.586Z,17.15
2019-05-22T19:59:20.846Z,15.20
2019-05-22T20:01:51.051Z,17.48
2019-05-22T20:04:20.971Z,25.00
2019-05-22T20:06:51.369Z,18.67
2019-05-22T20:09:21.164Z,22.17
2019-05-22T20:11:51.033Z,22.50
2019-05-22T20:14:21.034Z,29.82
2019-05-22T20:16:51.406Z,28.38
2019-05-22T20:19:21.617Z,26.30
2019-05-22T20:21:51.631Z,27.77
2019-05-22T20:24:22.575Z,34.15
2019-05-22T20:26:52.494Z,29.37
2019-05-22T20:29:22.498Z,34.35
2019-05-22T20:31:52.321Z,36.33
2019-05-22T20:34:22.175Z,36.35
2019-05-22T20:36:52.841Z,30.68
2019-05-22T20:39:24.505Z,29.75
2019-05-22T20:41:54.411Z,33.78
2019-05-22T20:44:25.155Z,34.95
2019-05-22T20:46:55.623Z,35.52
2019-05-22T20:49:26.601Z,41.20
2019-05-22T20:51:56.890Z,33.23
2019-05-22T20:54:26.833Z,34.92
2019-05-22T20:56:57.112Z,41.08
2019-05-22T20:59:27.755Z,40.00
2019-05-22T21:01:59.103Z,37.55
2019-05-22T21:04:29.573Z,35.83
2019-05-22T21:07:02.338Z,36.65
2019-05-22T21:09:32.609Z,39.83
2019-05-22T21:12:04.013Z,38.05
2019-05-22T21:14:34.156Z,39.27
2019-05-22T21:17:05.609Z,39.80
2019-05-22T21:19:35.423Z,43.27
2019-05-22T21:22:06.904Z,39.92
2019-05-22T21:24:37.482Z,37.17
2019-05-22T21:27:07.549Z,35.78
2019-05-22T21:29:37.682Z,38.13
2019-05-22T21:32:08.594Z,40.80
2019-05-22T21:34:39.328Z,36.40
2019-05-22T21:37:10.204Z,40.95
2019-05-22T21:39:40.645Z,39.38
2019-05-22T21:42:12.006Z,34.38
2019-05-22T21:44:41.830Z,40.83
2019-05-22T21:47:11.547Z,35.38
2019-05-22T21:49:42.827Z,34.92
2019-05-22T21:52:13.017Z,35.43
2019-05-22T21:54:42.923Z,35.03
2019-05-22T21:57:13.508Z,32.58
2019-05-22T21:59:43.921Z,27.95
2019-05-22T22:02:15.787Z,28.38
2019-05-22T22:04:45.934Z,31.17
2019-05-22T22:07:16.893Z,31.20
2019-05-22T22:09:47.139Z,31.17
2019-05-22T22:12:20.937Z,30.37
2019-05-22T22:14:51.350Z,28.60
2019-05-22T22:17:22.830Z,23.45
2019-05-22T22:19:54.031Z,21.70
2019-05-22T22:22:26.934Z,20.90
2019-05-22T22:24:56.850Z,31.70
2019-05-22T22:27:27.528Z,27.02
2019-05-22T22:29:57.435Z,26.97
2019-05-22T22:32:28.818Z,32.75
2019-05-22T22:34:59.114Z,25.70
2019-05-22T22:37:29.211Z,26.62
2019-05-22T22:40:00.717Z,29.42
2019-05-22T22:42:31.707Z,30.80
2019-05-22T22:45:03.091Z,29.07
2019-05-22T22:47:34.775Z,28.80
2019-05-22T22:50:07.303Z,30.17
2019-05-22T22:55:08.848Z,37.83
2019-05-22T22:57:39.424Z,36.55
2019-05-22T23:00:10.794Z,33.65
2019-05-22T23:02:40.636Z,34.48
2019-05-22T23:05:10.730Z,41.55
2019-05-22T23:07:41.519Z,36.70
2019-05-22T23:10:12.590Z,36.20
2019-05-22T23:12:43.176Z,37.78
2019-05-22T23:15:13.704Z,38.02
2019-05-22T23:17:44.343Z,37.20
2019-05-22T23:20:13.438Z,40.88
2019-05-22T23:22:43.955Z,41.58
2019-05-22T23:25:13.763Z,36.88
2019-05-22T23:27:43.522Z,43.33
2019-05-22T23:30:13.976Z,42.10
2019-05-22T23:32:44.078Z,45.98
2019-05-22T23:35:13.853Z,42.83
2019-05-22T23:37:43.709Z,42.20
2019-05-22T23:40:15.873Z,41.53
2019-05-22T23:42:45.782Z,46.00
2019-05-22T23:45:17.193Z,45.55
2019-05-22T23:48:06.179Z,44.42
2019-05-22T23:50:37.852Z,58.02
2019-05-22T23:53:08.827Z,46.05
2019-05-22T23:55:38.924Z,45.98
2019-05-22T23:58:09.858Z,52.25
